Time;durP1;ratioP1;P1;durP2;ratioP2;P2;SDS_P1;SDS_P2;PMS_P1;PMS_P2;Temp;Humidity;BMP_temperature;BMP_pressure;BME280_temperature;BME280_humidity;BME280_pressure;Samples;Min_cycle;Max_cycle;Signal;HPM_P1;HPM_P2
2020/12/31 00:00:54;;;;;;;40.97;26.15;;;7.70;99.90;;;;;;5073339;28;20064;-74
2020/12/31 00:03:19;;;;;;;45.67;27.13;;;7.70;99.90;;;;;;5073216;28;20062;-75
2020/12/31 00:05:45;;;;;;;37.70;25.73;;;7.60;99.90;;;;;;5072903;28;20092;-75
2020/12/31 00:08:11;;;;;;;43.17;26.30;;;7.60;99.90;;;;;;5072654;28;20032;-75
2020/12/31 00:10:36;;;;;;;40.03;24.90;;;7.60;99.90;;;;;;5073053;28;20029;-75
2020/12/31 00:13:02;;;;;;;37.90;22.00;;;7.60;99.90;;;;;;5071947;28;20465;-75
2020/12/31 00:15:28;;;;;;;37.47;23.80;;;7.60;99.90;;;;;;5072145;28;20066;-74
2020/12/31 00:17:53;;;;;;;42.90;25.63;;;7.60;99.90;;;;;;5072174;28;20035;-75
2020/12/31 00:20:19;;;;;;;40.63;25.92;;;7.60;99.90;;;;;;5072693;28;20173;-74
2020/12/31 00:22:45;;;;;;;42.05;27.48;;;7.60;99.90;;;;;;5072934;28;20070;-75
2020/12/31 00:25:11;;;;;;;36.97;26.00;;;7.50;99.90;;;;;;5072227;28;20020;-75
2020/12/31 00:27:37;;;;;;;44.83;28.67;;;7.50;99.90;;;;;;5072263;28;20036;-75
2020/12/31 00:30:10;;;;;;;47.45;27.17;;;7.50;99.90;;;;;;5072020;28;20089;-75
2020/12/31 00:32:42;;;;;;;39.92;27.42;;;7.40;99.90;;;;;;5072464;28;20437;-75
2020/12/31 00:35:07;;;;;;;41.67;27.55;;;7.50;99.90;;;;;;5069838;28;20120;-75
2020/12/31 00:37:34;;;;;;;45.50;26.75;;;7.50;99.90;;;;;;5061777;28;20017;-75
2020/12/31 00:40:02;;;;;;;40.25;26.13;;;7.50;99.90;;;;;;5072127;28;20079;-75
2020/12/31 00:42:28;;;;;;;38.10;24.13;;;7.50;99.90;;;;;;5072794;28;20048;-75
2020/12/31 00:44:54;;;;;;;38.85;22.88;;;7.60;99.90;;;;;;5072540;28;20107;-75
2020/12/31 00:47:19;;;;;;;30.20;19.55;;;7.60;99.90;;;;;;5068102;28;20492;-75
2020/12/31 00:49:45;;;;;;;26.60;13.43;;;7.70;99.90;;;;;;5064202;28;20027;-75
2020/12/31 00:52:11;;;;;;;21.23;13.25;;;7.70;99.90;;;;;;5072215;28;20763;-75
2020/12/31 00:54:36;;;;;;;18.58;9.93;;;7.70;99.90;;;;;;5052941;28;20041;-75
2020/12/31 00:57:02;;;;;;;11.77;7.80;;;7.70;99.90;;;;;;5064089;28;20024;-75
2020/12/31 00:59:28;;;;;;;10.57;8.02;;;7.70;99.90;;;;;;5072264;28;20107;-75
2020/12/31 01:01:53;;;;;;;10.80;7.43;;;7.70;99.90;;;;;;5072304;28;20465;-75
2020/12/31 01:04:19;;;;;;;9.40;6.68;;;7.70;99.90;;;;;;5072120;28;20032;-74
2020/12/31 01:06:44;;;;;;;6.68;4.90;;;7.70;99.90;;;;;;5072247;28;20040;-75
2020/12/31 01:09:10;;;;;;;8.02;5.28;;;7.60;99.90;;;;;;5067889;28;20020;-75
2020/12/31 01:11:37;;;;;;;7.97;4.95;;;7.60;99.90;;;;;;5045103;28;20082;-74
2020/12/31 01:14:06;;;;;;;6.30;3.90;;;7.70;99.90;;;;;;5072037;28;20036;-75
2020/12/31 01:16:32;;;;;;;6.75;3.80;;;7.70;99.90;;;;;;5071571;28;20066;-75
2020/12/31 01:18:57;;;;;;;5.47;4.00;;;7.70;99.90;;;;;;5072340;28;20358;-75
2020/12/31 01:21:23;;;;;;;5.25;4.20;;;7.70;99.90;;;;;;5069992;28;20054;-76
2020/12/31 01:23:49;;;;;;;5.03;4.28;;;7.70;99.90;;;;;;5060568;28;20017;-75
2020/12/31 01:26:32;;;;;;;6.55;4.43;;;7.70;99.90;;;;;;5063692;28;20025;-75
2020/12/31 01:28:59;;;;;;;5.30;4.40;;;7.70;99.90;;;;;;5059416;28;20024;-74
2020/12/31 01:31:24;;;;;;;5.68;4.25;;;7.60;99.90;;;;;;5057507;28;20032;-75
2020/12/31 01:33:50;;;;;;;5.10;3.80;;;7.60;99.90;;;;;;5058430;28;20029;-75
2020/12/31 01:36:16;;;;;;;4.93;3.90;;;7.60;99.90;;;;;;5072068;28;20104;-75
2020/12/31 01:38:41;;;;;;;5.35;3.60;;;7.60;99.90;;;;;;5071517;28;20035;-75
2020/12/31 01:41:07;;;;;;;4.63;3.97;;;7.60;99.90;;;;;;5071421;28;20153;-75
2020/12/31 01:43:33;;;;;;;4.30;3.58;;;7.60;99.90;;;;;;5067533;28;20065;-75
2020/12/31 01:45:58;;;;;;;4.28;3.55;;;7.70;99.90;;;;;;5051599;28;20044;-75
2020/12/31 01:48:25;;;;;;;4.20;3.30;;;7.70;99.90;;;;;;5033532;28;20416;-75
2020/12/31 01:50:51;;;;;;;3.60;3.08;;;7.80;99.90;;;;;;5067516;28;20016;-74
2020/12/31 01:53:17;;;;;;;3.97;2.95;;;7.70;99.90;;;;;;5071163;28;20108;-75
2020/12/31 01:55:42;;;;;;;4.28;3.65;;;7.70;99.90;;;;;;5070692;28;20115;-75
2020/12/31 01:58:08;;;;;;;4.25;3.05;;;7.70;99.90;;;;;;5071170;28;20025;-75
2020/12/31 02:00:34;;;;;;;3.97;3.03;;;7.70;99.90;;;;;;5071555;28;20024;-75
2020/12/31 02:03:00;;;;;;;2.30;2.10;;;7.70;99.90;;;;;;5058890;28;20021;-75
2020/12/31 02:05:26;;;;;;;2.80;2.50;;;7.80;99.90;;;;;;5062051;28;20039;-75
2020/12/31 02:07:52;;;;;;;3.30;2.67;;;7.80;99.90;;;;;;5050984;28;20108;-75
2020/12/31 02:10:18;;;;;;;2.25;2.08;;;7.80;99.90;;;;;;5050929;28;20032;-75
2020/12/31 02:12:43;;;;;;;2.40;2.20;;;7.80;99.90;;;;;;5050889;28;20029;-75
2020/12/31 02:15:18;;;;;;;2.97;2.65;;;7.90;99.90;;;;;;5051018;28;20037;-74
2020/12/31 02:17:44;;;;;;;2.60;2.40;;;7.90;99.90;;;;;;5050746;28;20108;-75
2020/12/31 02:20:13;;;;;;;3.20;2.53;;;7.80;99.90;;;;;;5050841;28;20032;-75
2020/12/31 02:22:39;;;;;;;2.58;2.25;;;7.80;99.90;;;;;;5050562;28;20036;-75
2020/12/31 02:25:05;;;;;;;2.80;2.35;;;7.80;99.90;;;;;;5055353;28;20024;-75
2020/12/31 02:27:31;;;;;;;2.88;2.58;;;7.80;99.90;;;;;;5059093;28;20132;-75
2020/12/31 02:29:57;;;;;;;2.75;2.50;;;7.80;99.90;;;;;;5051190;28;20064;-75
2020/12/31 02:32:23;;;;;;;2.90;2.65;;;7.80;99.90;;;;;;5050815;28;20065;-74
2020/12/31 02:34:48;;;;;;;3.40;2.72;;;7.80;99.90;;;;;;5050432;28;20524;-74
2020/12/31 02:37:14;;;;;;;2.60;2.40;;;7.80;99.90;;;;;;5050718;28;20493;-74
2020/12/31 02:39:40;;;;;;;2.95;2.55;;;7.70;99.90;;;;;;5050856;28;20037;-75
2020/12/31 02:42:05;;;;;;;3.38;3.05;;;7.70;99.90;;;;;;5036390;28;20029;-75
2020/12/31 02:44:31;;;;;;;3.42;3.13;;;7.70;99.90;;;;;;5057526;28;20025;-74
2020/12/31 02:46:56;;;;;;;3.50;3.20;;;7.80;99.90;;;;;;5074349;28;20169;-74
2020/12/31 02:49:22;;;;;;;4.85;3.80;;;7.70;99.90;;;;;;5073499;28;20114;-75
2020/12/31 02:51:48;;;;;;;4.20;3.50;;;7.80;99.90;;;;;;5054084;28;20032;-75
2020/12/31 02:54:13;;;;;;;4.32;3.45;;;7.80;99.90;;;;;;5054068;28;20125;-75
2020/12/31 02:56:39;;;;;;;3.33;2.90;;;7.70;99.90;;;;;;5053842;28;20020;-75
2020/12/31 02:59:05;;;;;;;2.75;2.55;;;7.70;99.90;;;;;;5054299;28;20092;-74
2020/12/31 03:01:31;;;;;;;2.38;2.17;;;7.70;99.90;;;;;;5051905;28;20029;-74
2020/12/31 03:03:57;;;;;;;2.50;2.30;;;7.70;99.90;;;;;;5053987;28;20377;-75
2020/12/31 03:06:23;;;;;;;3.10;2.80;;;7.70;99.90;;;;;;5054883;28;20037;-76
2020/12/31 03:08:48;;;;;;;3.00;2.70;;;7.70;99.90;;;;;;5073688;28;20032;-75
2020/12/31 03:11:25;;;;;;;2.92;2.55;;;7.70;99.90;;;;;;5058873;28;20041;-74
2020/12/31 03:13:52;;;;;;;3.53;2.90;;;7.70;99.90;;;;;;5053658;28;20435;-75
2020/12/31 03:16:18;;;;;;;4.32;2.50;;;7.70;99.90;;;;;;5054139;28;20029;-75
2020/12/31 03:18:45;;;;;;;2.28;2.08;;;7.70;99.90;;;;;;5053638;28;20511;-74
2020/12/31 03:21:11;;;;;;;2.80;2.55;;;7.70;99.90;;;;;;5053580;28;20037;-75
2020/12/31 03:23:37;;;;;;;3.38;3.00;;;7.70;99.90;;;;;;5053239;28;20029;-74
2020/12/31 03:26:03;;;;;;;2.78;2.33;;;7.70;99.90;;;;;;5055964;28;20029;-74
2020/12/31 03:28:29;;;;;;;2.72;2.30;;;7.70;99.90;;;;;;5068403;28;20028;-76
2020/12/31 03:30:54;;;;;;;3.10;2.40;;;7.70;99.90;;;;;;5059309;28;20027;-76
2020/12/31 03:33:20;;;;;;;2.20;2.00;;;7.70;99.90;;;;;;5061769;28;20149;-75
2020/12/31 03:35:48;;;;;;;3.15;2.70;;;7.70;99.90;;;;;;5039157;28;20047;-75
2020/12/31 03:38:16;;;;;;;2.80;2.60;;;7.70;99.90;;;;;;5045539;28;20107;-74
2020/12/31 03:40:42;;;;;;;2.40;2.20;;;7.70;99.90;;;;;;5052953;28;20076;-75
2020/12/31 03:43:08;;;;;;;2.20;2.00;;;7.70;99.90;;;;;;5053261;28;20067;-75
2020/12/31 03:45:34;;;;;;;2.58;2.38;;;7.70;99.90;;;;;;5053348;28;20465;-74
2020/12/31 03:48:00;;;;;;;2.85;2.55;;;7.70;99.90;;;;;;5064843;28;20442;-75
2020/12/31 03:50:26;;;;;;;2.20;2.00;;;7.70;99.90;;;;;;5059222;28;20033;-75
2020/12/31 03:52:52;;;;;;;2.53;2.20;;;7.70;99.90;;;;;;5051836;28;20028;-75
2020/12/31 03:55:18;;;;;;;2.53;2.33;;;7.70;99.90;;;;;;5052933;28;20064;-75
2020/12/31 03:57:44;;;;;;;2.83;2.53;;;7.70;99.90;;;;;;5052654;28;20099;-74
2020/12/31 04:00:11;;;;;;;5.68;2.78;;;7.70;99.90;;;;;;5052862;28;20032;-75
2020/12/31 04:02:37;;;;;;;5.32;2.30;;;7.70;99.90;;;;;;5052787;28;20025;-75
2020/12/31 04:05:04;;;;;;;2.70;2.50;;;7.60;99.90;;;;;;5052956;28;20025;-76
2020/12/31 04:07:29;;;;;;;2.80;2.60;;;7.60;99.90;;;;;;5052817;28;20076;-75
2020/12/31 04:09:55;;;;;;;2.70;2.50;;;7.60;99.90;;;;;;5052707;28;20048;-74
2020/12/31 04:12:21;;;;;;;3.25;2.95;;;7.70;99.90;;;;;;5053647;28;20061;-76
2020/12/31 04:14:46;;;;;;;4.55;2.80;;;7.60;99.90;;;;;;5038573;28;20033;-75
2020/12/31 04:17:12;;;;;;;2.90;2.60;;;7.60;99.90;;;;;;5043338;28;20381;-74
2020/12/31 04:19:41;;;;;;;3.72;2.95;;;7.60;99.90;;;;;;5052308;28;20469;-74
2020/12/31 04:22:08;;;;;;;3.67;3.00;;;7.60;99.90;;;;;;5051733;28;20025;-75
2020/12/31 04:24:34;;;;;;;3.10;2.58;;;7.60;99.90;;;;;;5051862;28;20037;-75
2020/12/31 04:26:59;;;;;;;6.45;2.78;;;7.70;99.90;;;;;;5052743;28;20179;-74
2020/12/31 04:29:25;;;;;;;3.15;2.78;;;7.60;99.90;;;;;;5071178;28;20442;-74
2020/12/31 04:31:51;;;;;;;2.75;2.53;;;7.60;99.90;;;;;;5072419;28;20405;-74
2020/12/31 04:34:16;;;;;;;5.60;2.33;;;7.70;99.90;;;;;;5052663;28;20028;-75
2020/12/31 04:36:42;;;;;;;3.08;2.78;;;7.70;99.90;;;;;;5052386;28;20037;-75
2020/12/31 04:39:08;;;;;;;2.20;2.00;;;7.70;99.90;;;;;;5052057;28;20465;-75
2020/12/31 04:41:33;;;;;;;2.75;2.22;;;7.70;99.90;;;;;;5032374;28;20383;-75
2020/12/31 04:44:03;;;;;;;2.50;2.30;;;7.70;99.90;;;;;;5031717;28;20545;-74
2020/12/31 04:46:31;;;;;;;2.08;1.95;;;7.70;99.90;;;;;;5031754;28;20021;-75
2020/12/31 04:49:09;;;;;;;2.25;2.05;;;7.70;99.90;;;;;;5035930;28;20074;-75
2020/12/31 04:51:36;;;;;;;3.70;2.28;;;7.70;99.90;;;;;;5024215;28;20029;-75
2020/12/31 04:54:06;;;;;;;2.47;2.15;;;7.70;99.90;;;;;;5045913;28;20052;-75
2020/12/31 04:56:37;;;;;;;5.00;1.90;;;7.80;99.90;;;;;;5045244;28;20013;-75
2020/12/31 04:59:04;;;;;;;3.15;2.45;;;7.80;99.90;;;;;;5031835;28;20022;-75
2020/12/31 05:01:30;;;;;;;2.47;2.10;;;7.80;99.90;;;;;;5032196;28;20382;-75
2020/12/31 05:03:56;;;;;;;3.35;2.10;;;7.80;99.90;;;;;;5031739;28;20200;-74
2020/12/31 05:06:23;;;;;;;2.17;1.90;;;7.70;99.90;;;;;;5031586;28;20017;-74
2020/12/31 05:08:49;;;;;;;2.08;1.88;;;7.70;99.90;;;;;;5039248;28;20021;-75
2020/12/31 05:11:15;;;;;;;2.08;1.90;;;7.80;99.90;;;;;;5044789;28;20022;-74
2020/12/31 05:13:49;;;;;;;1.90;1.80;;;7.80;99.90;;;;;;5035222;28;20039;-76
2020/12/31 05:16:28;;;;;;;4.28;2.20;;;7.80;99.90;;;;;;5031648;28;20571;-75
2020/12/31 05:18:55;;;;;;;2.58;2.10;;;7.80;99.90;;;;;;5031327;28;20108;-75
2020/12/31 05:21:20;;;;;;;3.53;2.05;;;7.80;99.90;;;;;;5031501;28;20145;-75
2020/12/31 05:23:46;;;;;;;2.55;1.77;;;7.80;99.90;;;;;;5030994;28;20121;-75
2020/12/31 05:26:28;;;;;;;3.80;2.25;;;7.80;99.90;;;;;;5013675;28;20033;-74
2020/12/31 05:28:53;;;;;;;5.20;2.25;;;7.80;99.90;;;;;;5037515;28;20014;-74
2020/12/31 05:31:21;;;;;;;2.67;2.03;;;7.80;99.90;;;;;;5033109;28;20051;-75
2020/12/31 05:33:47;;;;;;;2.67;2.00;;;7.80;99.90;;;;;;5039355;28;20481;-74
2020/12/31 05:36:20;;;;;;;2.88;1.98;;;7.80;99.90;;;;;;5031569;28;20052;-74
2020/12/31 05:38:49;;;;;;;2.08;1.88;;;7.80;99.90;;;;;;5045289;28;20061;-74
2020/12/31 05:41:15;;;;;;;2.50;2.08;;;7.80;99.90;;;;;;5031423;28;20081;-74
2020/12/31 05:43:41;;;;;;;2.45;2.25;;;7.80;99.90;;;;;;5031495;28;20024;-74
2020/12/31 05:46:11;;;;;;;2.20;1.83;;;7.80;99.90;;;;;;5031188;28;20017;-74
2020/12/31 05:48:38;;;;;;;2.20;1.92;;;7.80;99.90;;;;;;5031390;28;20147;-75
2020/12/31 05:51:20;;;;;;;3.28;2.45;;;7.80;99.90;;;;;;5038160;28;20021;-74
2020/12/31 05:53:48;;;;;;;3.53;1.90;;;7.80;99.90;;;;;;5031542;28;20401;-74
2020/12/31 05:56:16;;;;;;;2.65;1.98;;;7.80;99.90;;;;;;5045137;28;20116;-74
2020/12/31 05:58:48;;;;;;;3.03;1.98;;;7.80;99.90;;;;;;5031013;28;20025;-74
2020/12/31 06:01:14;;;;;;;3.15;1.98;;;7.90;99.90;;;;;;5032732;28;20045;-74
2020/12/31 06:03:51;;;;;;;5.50;2.03;;;7.80;99.90;;;;;;5031322;28;20060;-74
2020/12/31 06:06:22;;;;;;;2.28;1.90;;;7.90;99.90;;;;;;5031529;28;20714;-77
2020/12/31 06:09:03;;;;;;;3.55;2.30;;;7.80;99.90;;;;;;5031666;28;20075;-75
2020/12/31 06:11:37;;;;;;;3.08;2.10;;;7.80;99.90;;;;;;5038273;28;20025;-75
2020/12/31 06:14:04;;;;;;;2.47;2.00;;;7.80;99.90;;;;;;5032717;28;20022;-75
2020/12/31 06:16:38;;;;;;;2.63;2.08;;;7.80;99.90;;;;;;5054394;28;20025;-74
2020/12/31 06:19:41;;;;;;;2.20;2.00;;;7.80;99.90;;;;;;5033626;28;20385;-75
2020/12/31 06:22:07;;;;;;;2.40;2.10;;;7.80;99.90;;;;;;5033346;28;20042;-75
2020/12/31 06:24:47;;;;;;;2.10;1.90;;;7.80;99.90;;;;;;5034797;28;20022;-74
2020/12/31 06:27:18;;;;;;;3.88;1.92;;;7.80;99.90;;;;;;5053981;28;20009;-75
2020/12/31 06:29:51;;;;;;;2.80;1.98;;;7.90;99.90;;;;;;5036572;28;20117;-74
2020/12/31 06:32:27;;;;;;;2.95;2.00;;;7.80;99.90;;;;;;5033677;28;20061;-73
2020/12/31 06:35:04;;;;;;;2.50;2.20;;;7.80;99.90;;;;;;5034861;28;20038;-74
2020/12/31 06:37:30;;;;;;;2.33;2.00;;;7.80;99.90;;;;;;5034548;28;20478;-73
2020/12/31 06:40:26;;;;;;;2.28;2.05;;;7.80;99.90;;;;;;5039591;28;20048;-74
2020/12/31 06:43:14;;;;;;;2.10;1.95;;;7.80;99.90;;;;;;5038937;28;20477;-74
2020/12/31 06:45:49;;;;;;;1.80;1.70;;;7.80;99.90;;;;;;5037499;28;20025;-74
2020/12/31 06:48:26;;;;;;;2.63;2.13;;;7.80;99.90;;;;;;5034081;28;20100;-74
2020/12/31 06:51:07;;;;;;;2.55;1.98;;;7.80;99.90;;;;;;5034127;28;20088;-74
2020/12/31 06:53:44;;;;;;;3.67;2.60;;;7.80;99.90;;;;;;5033618;28;20017;-73
2020/12/31 06:56:10;;;;;;;2.20;1.90;;;7.80;99.90;;;;;;5035554;28;20033;-74
2020/12/31 06:58:37;;;;;;;4.72;1.90;;;7.80;99.90;;;;;;5045522;28;20783;-74
2020/12/31 07:01:23;;;;;;;2.78;1.58;;;7.80;99.90;;;;;;5039278;28;20051;-74
2020/12/31 07:03:49;;;;;;;1.80;1.70;;;7.90;99.90;;;;;;5035738;28;20029;-74
2020/12/31 07:06:21;;;;;;;4.05;1.73;;;7.90;99.90;;;;;;5036862;28;20025;-74
2020/12/31 07:08:47;;;;;;;;;;;7.90;99.90;;;;;;5036067;28;20444;-74
2020/12/31 07:11:13;;;;;;;3.15;2.22;;;7.90;99.90;;;;;;5036659;28;19904;-74
2020/12/31 07:13:41;;;;;;;4.03;2.25;;;7.90;99.90;;;;;;5034006;28;20025;-74
2020/12/31 07:16:08;;;;;;;2.75;2.10;;;7.90;99.90;;;;;;5043370;28;20029;-74
2020/12/31 07:18:33;;;;;;;6.25;2.25;;;8.00;99.90;;;;;;5053310;28;20044;-75
2020/12/31 07:20:59;;;;;;;3.38;2.70;;;8.00;99.90;;;;;;5053476;28;20025;-74
2020/12/31 07:23:38;;;;;;;2.88;2.47;;;8.10;99.90;;;;;;5053914;28;20017;-74
2020/12/31 07:26:04;;;;;;;2.88;2.22;;;8.20;99.90;;;;;;5052895;28;20036;-74
2020/12/31 07:28:30;;;;;;;2.28;1.88;;;8.30;99.90;;;;;;5053935;28;20021;-74
2020/12/31 07:30:55;;;;;;;1.88;1.73;;;8.40;99.90;;;;;;5048052;28;20074;-73
2020/12/31 07:33:35;;;;;;;2.15;1.88;;;8.70;99.90;;;;;;5045275;28;20443;-75
2020/12/31 07:36:14;;;;;;;3.42;2.67;;;8.90;99.90;;;;;;5052953;28;20029;-74
2020/12/31 07:38:40;;;;;;;1.90;1.70;;;8.90;99.90;;;;;;5053511;28;20104;-74
2020/12/31 07:41:11;;;;;;;2.78;2.13;;;8.80;99.90;;;;;;5052738;28;20084;-75
2020/12/31 07:43:37;;;;;;;1.80;1.70;;;8.60;99.90;;;;;;5053164;28;20028;-74
2020/12/31 07:46:04;;;;;;;3.30;2.35;;;8.50;99.90;;;;;;5052530;28;20045;-74
2020/12/31 07:48:31;;;;;;;2.05;1.85;;;8.40;99.90;;;;;;5053020;28;20453;-74
2020/12/31 07:51:02;;;;;;;3.45;2.38;;;8.40;99.90;;;;;;5052786;28;20085;-74
2020/12/31 07:53:29;;;;;;;3.00;2.05;;;8.40;99.90;;;;;;5052832;28;20013;-74
2020/12/31 07:55:55;;;;;;;2.83;1.92;;;8.40;99.90;;;;;;5052619;28;20413;-74
2020/12/31 07:58:23;;;;;;;2.13;1.90;;;8.50;99.90;;;;;;5052959;28;20457;-75
2020/12/31 08:01:07;;;;;;;3.22;2.28;;;8.50;99.90;;;;;;5053005;28;20036;-74
2020/12/31 08:03:34;;;;;;;3.13;2.20;;;8.60;99.90;;;;;;5029683;28;20017;-74
2020/12/31 08:06:07;;;;;;;2.00;1.75;;;8.60;99.90;;;;;;5052188;28;20465;-75
2020/12/31 08:08:34;;;;;;;1.63;1.52;;;8.60;99.90;;;;;;5052807;28;20025;-75
2020/12/31 08:11:09;;;;;;;4.63;2.03;;;8.60;99.90;;;;;;5052753;28;20358;-74
2020/12/31 08:13:35;;;;;;;2.45;1.98;;;8.70;99.90;;;;;;5049848;28;20026;-75
2020/12/31 08:16:01;;;;;;;2.03;1.65;;;8.70;99.90;;;;;;5033086;28;20095;-75
2020/12/31 08:18:27;;;;;;;6.93;2.28;;;8.80;99.90;;;;;;5014963;28;20025;-74
2020/12/31 08:20:59;;;;;;;3.13;1.83;;;8.80;99.90;;;;;;5033251;28;20070;-75
2020/12/31 08:23:30;;;;;;;;;;;9.20;99.90;;;;;;5033437;28;20025;-74
2020/12/31 08:25:58;;;;;;;2.72;2.13;;;10.00;99.90;;;;;;5019817;28;19909;-75
2020/12/31 08:28:24;;;;;;;2.22;1.65;;;10.80;99.90;;;;;;5032927;28;20382;-75
2020/12/31 08:30:50;;;;;;;1.55;1.35;;;11.10;99.90;;;;;;5033166;28;20043;-74
2020/12/31 08:33:25;;;;;;;2.45;1.75;;;11.10;99.90;;;;;;5032865;28;20105;-74
2020/12/31 08:35:52;;;;;;;2.28;1.63;;;10.80;99.90;;;;;;5032497;28;20367;-74
2020/12/31 08:38:20;;;;;;;2.83;1.90;;;10.50;99.90;;;;;;5032316;28;20057;-75
2020/12/31 08:40:48;;;;;;;3.58;2.70;;;10.40;99.90;;;;;;5032498;28;20132;-74
2020/12/31 08:43:21;;;;;;;4.10;2.03;;;10.40;99.90;;;;;;5032626;28;20377;-75
2020/12/31 08:45:50;;;;;;;1.73;1.60;;;10.60;99.90;;;;;;5032715;28;20036;-75
2020/12/31 08:48:22;;;;;;;2.20;1.73;;;11.20;99.90;;;;;;5032648;28;20363;-74
2020/12/31 08:51:06;;;;;;;1.77;1.63;;;11.50;99.90;;;;;;5032081;28;20118;-75
2020/12/31 08:53:33;;;;;;;2.33;1.75;;;11.60;99.90;;;;;;5031740;28;20107;-75
2020/12/31 08:55:59;;;;;;;2.42;1.65;;;12.10;99.90;;;;;;5031821;28;20033;-76
2020/12/31 08:58:29;;;;;;;2.55;1.38;;;12.80;99.90;;;;;;5031839;28;20469;-75
2020/12/31 09:00:59;;;;;;;1.67;1.40;;;12.70;99.90;;;;;;5031330;28;20071;-75
2020/12/31 09:03:25;;;;;;;2.03;1.50;;;12.40;99.90;;;;;;5029086;28;20025;-76
2020/12/31 09:06:02;;;;;;;2.35;1.60;;;12.40;99.90;;;;;;5031542;28;20557;-76
2020/12/31 09:08:30;;;;;;;6.65;1.50;;;13.50;99.90;;;;;;5025619;28;20041;-76
2020/12/31 09:11:04;;;;;;;1.48;1.38;;;14.10;99.90;;;;;;5032087;28;20089;-75
2020/12/31 09:13:35;;;;;;;2.42;1.65;;;14.00;99.90;;;;;;5030214;28;20092;-75
2020/12/31 09:16:13;;;;;;;2.25;1.38;;;13.60;99.90;;;;;;5031719;28;20041;-75
2020/12/31 09:18:40;;;;;;;2.60;1.60;;;13.20;99.90;;;;;;5032036;28;20029;-76
2020/12/31 09:21:06;;;;;;;2.03;1.70;;;12.70;99.90;;;;;;5030874;28;20025;-75
2020/12/31 09:23:32;;;;;;;3.08;1.73;;;12.30;99.90;;;;;;5018298;28;20073;-76
2020/12/31 09:25:58;;;;;;;2.42;1.65;;;12.00;99.90;;;;;;5027023;28;20485;-76
2020/12/31 09:28:27;;;;;;;2.47;1.50;;;11.90;99.90;;;;;;5029633;28;20029;-76
2020/12/31 09:30:57;;;;;;;2.35;1.80;;;11.80;99.90;;;;;;5020194;28;20022;-75
2020/12/31 09:33:25;;;;;;;1.60;1.50;;;11.50;99.90;;;;;;5027901;28;20029;-75
2020/12/31 09:35:51;;;;;;;4.32;1.85;;;11.30;99.90;;;;;;5030960;28;20051;-74
2020/12/31 09:38:18;;;;;;;2.95;2.00;;;11.10;99.90;;;;;;5031042;28;20100;-74
2020/12/31 09:40:44;;;;;;;2.72;1.70;;;11.10;99.90;;;;;;5050244;28;20413;-74
2020/12/31 09:43:11;;;;;;;2.55;2.20;;;11.00;99.90;;;;;;5050219;28;20429;-73
2020/12/31 09:45:38;;;;;;;28.67;18.48;;;11.00;99.90;;;;;;5066974;28;20047;-74
2020/12/31 09:48:05;;;;;;;16.75;12.30;;;11.00;99.90;;;;;;5069652;28;20024;-74
2020/12/31 09:50:31;;;;;;;5.22;4.18;;;10.90;99.90;;;;;;5069255;28;20024;-76
2020/12/31 09:52:57;;;;;;;3.15;2.55;;;10.80;99.90;;;;;;5065406;28;20025;-74
2020/12/31 09:55:23;;;;;;;11.27;7.55;;;10.70;99.90;;;;;;5062513;28;20373;-74
2020/12/31 09:57:50;;;;;;;15.07;10.23;;;10.60;99.90;;;;;;5068253;28;20637;-74
2020/12/31 10:00:16;;;;;;;9.55;6.78;;;10.50;99.90;;;;;;5068000;28;20016;-73
2020/12/31 10:02:41;;;;;;;7.05;5.75;;;10.30;99.90;;;;;;5049421;28;20031;-76
2020/12/31 10:05:07;;;;;;;6.57;5.28;;;10.20;99.90;;;;;;5059427;28;20025;-73
2020/12/31 10:07:33;;;;;;;46.45;33.92;;;10.10;99.90;;;;;;5058305;28;20024;-74
2020/12/31 10:09:59;;;;;;;16.98;13.40;;;10.00;99.90;;;;;;5035463;28;20152;-73
2020/12/31 10:12:25;;;;;;;9.05;7.43;;;9.90;99.90;;;;;;5030321;28;20087;-73
2020/12/31 10:14:51;;;;;;;3.53;1.92;;;9.90;99.90;;;;;;5017836;28;20112;-73
2020/12/31 10:17:17;;;;;;;4.78;2.80;;;9.80;99.90;;;;;;5035676;28;21134;-76
2020/12/31 10:19:42;;;;;;;12.05;10.18;;;9.70;99.90;;;;;;5035021;28;20433;-76
2020/12/31 10:22:09;;;;;;;5.25;2.58;;;9.80;99.90;;;;;;5027872;28;20083;-74
2020/12/31 10:24:34;;;;;;;4.05;2.58;;;9.70;99.90;;;;;;5032225;28;20370;-74
2020/12/31 10:27:00;;;;;;;5.57;3.25;;;9.70;99.90;;;;;;5035404;28;20029;-73
2020/12/31 10:29:26;;;;;;;8.32;6.40;;;9.80;99.90;;;;;;5034275;28;20508;-74
2020/12/31 10:31:53;;;;;;;10.27;6.20;;;9.80;99.90;;;;;;5035111;28;20017;-73
2020/12/31 10:34:20;;;;;;;4.07;2.72;;;9.80;99.90;;;;;;5041768;28;20037;-75
2020/12/31 10:36:54;;;;;;;6.60;3.60;;;9.80;99.90;;;;;;5048848;28;20474;-74
2020/12/31 10:39:20;;;;;;;8.90;7.50;;;9.70;99.90;;;;;;5020341;28;20034;-76
2020/12/31 10:41:47;;;;;;;2.90;2.60;;;9.80;99.90;;;;;;5014266;28;20034;-75
2020/12/31 10:44:13;;;;;;;2.63;2.30;;;9.80;99.90;;;;;;5012129;28;20080;-74
2020/12/31 10:46:39;;;;;;;11.27;4.05;;;9.70;99.90;;;;;;5012175;28;20037;-74
2020/12/31 10:49:05;;;;;;;15.25;10.85;;;9.70;99.90;;;;;;5002880;28;20025;-74
2020/12/31 10:51:42;;;;;;;36.10;22.02;;;9.70;99.90;;;;;;5015808;28;20022;-75
2020/12/31 10:54:12;;;;;;;7.05;4.35;;;9.70;99.90;;;;;;5020254;28;20037;-75
2020/12/31 10:56:38;;;;;;;10.23;7.93;;;9.70;99.90;;;;;;5024734;28;20037;-74
2020/12/31 10:59:03;;;;;;;4.07;2.97;;;9.70;99.90;;;;;;5030950;28;20359;-74
2020/12/31 11:01:29;;;;;;;6.53;5.40;;;9.70;99.90;;;;;;5033015;28;20461;-76
2020/12/31 11:03:55;;;;;;;4.55;3.33;;;9.70;99.90;;;;;;5034359;28;20480;-73
2020/12/31 11:06:25;;;;;;;10.48;6.13;;;9.70;99.90;;;;;;5016908;28;20104;-74
2020/12/31 11:08:52;;;;;;;14.07;8.70;;;9.60;99.90;;;;;;5034484;28;20017;-74
2020/12/31 11:11:23;;;;;;;12.63;7.75;;;9.60;99.90;;;;;;5034359;28;20024;-74
2020/12/31 11:13:49;;;;;;;30.98;17.67;;;9.60;99.90;;;;;;5034202;28;20028;-74
2020/12/31 11:16:15;;;;;;;15.68;8.38;;;9.70;99.90;;;;;;5034366;28;20052;-75
2020/12/31 11:18:42;;;;;;;11.02;6.28;;;9.70;99.90;;;;;;5034048;28;20017;-74
2020/12/31 11:21:09;;;;;;;12.05;8.07;;;9.70;99.90;;;;;;5034466;28;20378;-74
2020/12/31 11:23:35;;;;;;;3.45;2.58;;;9.70;99.90;;;;;;5031087;28;20106;-75
2020/12/31 11:26:01;;;;;;;7.47;5.00;;;9.70;99.90;;;;;;5034231;28;20025;-73
2020/12/31 11:28:27;;;;;;;14.32;8.75;;;9.70;99.90;;;;;;5033607;28;20042;-75
2020/12/31 11:30:53;;;;;;;36.72;18.80;;;9.70;99.90;;;;;;5033921;28;20022;-75
2020/12/31 11:33:19;;;;;;;22.20;11.00;;;9.70;99.90;;;;;;5034079;28;20359;-75
2020/12/31 11:35:45;;;;;;;22.70;13.07;;;9.70;99.90;;;;;;5033890;28;20065;-75
2020/12/31 11:38:11;;;;;;;60.53;31.95;;;9.70;99.90;;;;;;5034075;28;20040;-75
2020/12/31 11:40:37;;;;;;;343.50;126.38;;;9.80;99.90;;;;;;5033490;28;20046;-74
2020/12/31 11:43:03;;;;;;;36.50;16.58;;;9.80;99.90;;;;;;5034131;28;20087;-75
2020/12/31 11:45:29;;;;;;;139.73;46.05;;;9.90;99.90;;;;;;5033717;28;20150;-75
2020/12/31 11:47:54;;;;;;;14.20;7.18;;;9.90;99.90;;;;;;5033682;28;20577;-74
2020/12/31 11:50:20;;;;;;;8.43;4.55;;;9.90;99.90;;;;;;5031323;28;20044;-74
2020/12/31 11:52:46;;;;;;;48.63;19.30;;;9.90;99.90;;;;;;5024112;28;20038;-74
2020/12/31 11:55:12;;;;;;;81.40;32.22;;;9.90;99.90;;;;;;5015542;28;20768;-74
2020/12/31 11:57:37;;;;;;;16.30;7.97;;;9.90;99.90;;;;;;5027794;28;20029;-75
2020/12/31 12:00:04;;;;;;;40.83;16.55;;;10.00;99.90;;;;;;5033276;28;20029;-75
2020/12/31 12:02:29;;;;;;;31.50;14.90;;;10.00;99.90;;;;;;5027987;28;20026;-75
2020/12/31 12:04:55;;;;;;;8.35;4.30;;;10.00;99.90;;;;;;5027288;28;20033;-75
2020/12/31 12:07:20;;;;;;;6.70;3.97;;;10.10;99.90;;;;;;5016816;28;20041;-75
2020/12/31 12:09:46;;;;;;;1.85;1.75;;;10.20;99.90;;;;;;5029678;28;20026;-75
2020/12/31 12:12:12;;;;;;;2.83;2.17;;;10.30;99.90;;;;;;5013717;28;20493;-75
2020/12/31 12:14:39;;;;;;;3.58;3.05;;;10.30;99.90;;;;;;5032048;28;20604;-75
2020/12/31 12:17:04;;;;;;;18.10;8.95;;;10.40;99.90;;;;;;5030872;28;20033;-75
2020/12/31 12:19:30;;;;;;;5.22;3.63;;;10.40;99.90;;;;;;5031639;28;20022;-74
2020/12/31 12:21:59;;;;;;;7.15;3.42;;;10.50;99.90;;;;;;5013220;28;20029;-74
2020/12/31 12:24:26;;;;;;;87.45;37.90;;;10.50;99.90;;;;;;5011994;28;20026;-75
2020/12/31 12:26:52;;;;;;;30.05;14.40;;;10.50;99.90;;;;;;5029978;28;20036;-75
2020/12/31 12:29:18;;;;;;;11.45;7.53;;;10.50;99.90;;;;;;5030894;28;20021;-74
2020/12/31 12:31:44;;;;;;;63.05;27.63;;;10.50;99.90;;;;;;5032757;28;20497;-75
2020/12/31 12:34:09;;;;;;;127.32;57.17;;;10.60;99.90;;;;;;5008389;28;20029;-75
2020/12/31 12:36:35;;;;;;;137.73;63.08;;;10.60;99.90;;;;;;5031143;28;20053;-74
2020/12/31 12:39:01;;;;;;;26.63;13.52;;;10.70;99.90;;;;;;5031275;28;20021;-74
2020/12/31 12:41:27;;;;;;;14.65;6.85;;;10.80;99.90;;;;;;5030507;28;20559;-74
2020/12/31 12:43:55;;;;;;;8.55;5.68;;;10.90;99.90;;;;;;5030930;28;20066;-74
2020/12/31 12:46:21;;;;;;;59.88;25.85;;;11.00;99.90;;;;;;5031790;28;20050;-73
2020/12/31 12:48:47;;;;;;;56.50;22.88;;;11.10;99.90;;;;;;5031225;28;20412;-74
2020/12/31 12:51:13;;;;;;;29.50;12.52;;;11.00;99.90;;;;;;5027850;28;20017;-75
2020/12/31 12:53:39;;;;;;;12.48;6.88;;;11.00;99.90;;;;;;5030992;28;20057;-72